sensor_id;sensor_type;location;lat;lon;timestamp;P1;durP1;ratioP1;P2;durP2;ratioP2
17592;SDS011;8915;51.760;14.300;2024-02-15T00:00:13;4.00;;;2.20;;
17592;SDS011;8915;51.760;14.300;2024-02-15T00:02:41;2.20;;;2.00;;
17592;SDS011;8915;51.760;14.300;2024-02-15T00:05:11;3.40;;;2.20;;
17592;SDS011;8915;51.760;14.300;2024-02-15T00:07:38;5.27;;;2.50;;
17592;SDS011;8915;51.760;14.300;2024-02-15T00:10:05;2.40;;;2.20;;
17592;SDS011;8915;51.760;14.300;2024-02-15T00:12:33;2.60;;;2.20;;
17592;SDS011;8915;51.760;14.300;2024-02-15T00:14:59;5.37;;;4.03;;
17592;SDS011;8915;51.760;14.300;2024-02-15T00:17:27;3.03;;;2.23;;
17592;SDS011;8915;51.760;14.300;2024-02-15T00:19:54;3.90;;;2.10;;
17592;SDS011;8915;51.760;14.300;2024-02-15T00:22:22;4.00;;;2.17;;
17592;SDS011;8915;51.760;14.300;2024-02-15T00:24:49;2.40;;;2.20;;
17592;SDS011;8915;51.760;14.300;2024-02-15T00:27:16;3.23;;;1.80;;
17592;SDS011;8915;51.760;14.300;2024-02-15T00:29:42;3.53;;;2.23;;
17592;SDS011;8915;51.760;14.300;2024-02-15T00:32:09;2.37;;;2.00;;
17592;SDS011;8915;51.760;14.300;2024-02-15T00:34:36;4.03;;;2.23;;
17592;SDS011;8915;51.760;14.300;2024-02-15T00:37:03;3.77;;;2.27;;
17592;SDS011;8915;51.760;14.300;2024-02-15T00:39:31;2.47;;;2.27;;
17592;SDS011;8915;51.760;14.300;2024-02-15T00:41:58;2.87;;;2.57;;
17592;SDS011;8915;51.760;14.300;2024-02-15T00:44:25;3.50;;;2.27;;
17592;SDS011;8915;51.760;14.300;2024-02-15T00:46:51;2.50;;;2.13;;
17592;SDS011;8915;51.760;14.300;2024-02-15T00:49:21;2.37;;;2.17;;
17592;SDS011;8915;51.760;14.300;2024-02-15T00:51:48;3.37;;;2.33;;
17592;SDS011;8915;51.760;14.300;2024-02-15T00:54:15;2.40;;;2.00;;
17592;SDS011;8915;51.760;14.300;2024-02-15T00:56:42;4.40;;;2.17;;
17592;SDS011;8915;51.760;14.300;2024-02-15T00:59:09;2.87;;;2.17;;
17592;SDS011;8915;51.760;14.300;2024-02-15T01:01:35;4.20;;;2.10;;
17592;SDS011;8915;51.760;14.300;2024-02-15T01:04:03;2.37;;;2.10;;
17592;SDS011;8915;51.760;14.300;2024-02-15T01:06:29;2.10;;;1.90;;
17592;SDS011;8915;51.760;14.300;2024-02-15T01:08:55;3.43;;;2.43;;
17592;SDS011;8915;51.760;14.300;2024-02-15T01:11:26;2.53;;;2.30;;
17592;SDS011;8915;51.760;14.300;2024-02-15T01:13:54;3.13;;;2.20;;
17592;SDS011;8915;51.760;14.300;2024-02-15T01:16:21;3.20;;;2.53;;
17592;SDS011;8915;51.760;14.300;2024-02-15T01:18:47;2.60;;;2.20;;
17592;SDS011;8915;51.760;14.300;2024-02-15T01:21:13;3.70;;;2.37;;
17592;SDS011;8915;51.760;14.300;2024-02-15T01:23:40;2.47;;;2.27;;
17592;SDS011;8915;51.760;14.300;2024-02-15T01:26:06;3.27;;;2.53;;
17592;SDS011;8915;51.760;14.300;2024-02-15T01:28:33;2.67;;;2.30;;
17592;SDS011;8915;51.760;14.300;2024-02-15T01:31:01;2.50;;;2.30;;
17592;SDS011;8915;51.760;14.300;2024-02-15T01:33:27;3.93;;;2.80;;
17592;SDS011;8915;51.760;14.300;2024-02-15T01:35:54;2.57;;;2.37;;
17592;SDS011;8915;51.760;14.300;2024-02-15T01:38:21;3.00;;;2.30;;
17592;SDS011;8915;51.760;14.300;2024-02-15T01:40:47;3.03;;;2.20;;
17592;SDS011;8915;51.760;14.300;2024-02-15T01:43:14;2.67;;;2.47;;
17592;SDS011;8915;51.760;14.300;2024-02-15T01:45:40;3.50;;;2.53;;
17592;SDS011;8915;51.760;14.300;2024-02-15T01:48:08;3.13;;;2.80;;
17592;SDS011;8915;51.760;14.300;2024-02-15T01:50:36;4.30;;;2.80;;
17592;SDS011;8915;51.760;14.300;2024-02-15T01:53:03;2.80;;;2.50;;
17592;SDS011;8915;51.760;14.300;2024-02-15T01:55:33;3.30;;;2.83;;
17592;SDS011;8915;51.760;14.300;2024-02-15T01:58:00;3.00;;;2.70;;
17592;SDS011;8915;51.760;14.300;2024-02-15T02:00:27;5.13;;;2.83;;
17592;SDS011;8915;51.760;14.300;2024-02-15T02:02:54;3.10;;;2.80;;
17592;SDS011;8915;51.760;14.300;2024-02-15T02:05:29;3.93;;;3.50;;
17592;SDS011;8915;51.760;14.300;2024-02-15T02:07:56;3.67;;;2.83;;
17592;SDS011;8915;51.760;14.300;2024-02-15T02:10:24;3.00;;;2.70;;
17592;SDS011;8915;51.760;14.300;2024-02-15T02:12:51;4.30;;;2.97;;
17592;SDS011;8915;51.760;14.300;2024-02-15T02:15:18;3.00;;;2.70;;
17592;SDS011;8915;51.760;14.300;2024-02-15T02:17:48;5.00;;;3.07;;
17592;SDS011;8915;51.760;14.300;2024-02-15T02:20:14;2.77;;;2.40;;
17592;SDS011;8915;51.760;14.300;2024-02-15T02:22:43;4.63;;;2.53;;
17592;SDS011;8915;51.760;14.300;2024-02-15T02:25:14;3.30;;;2.83;;
17592;SDS011;8915;51.760;14.300;2024-02-15T02:27:41;2.93;;;2.73;;
17592;SDS011;8915;51.760;14.300;2024-02-15T02:30:12;3.50;;;2.70;;
17592;SDS011;8915;51.760;14.300;2024-02-15T02:32:40;4.40;;;2.80;;
17592;SDS011;8915;51.760;14.300;2024-02-15T02:35:06;5.43;;;2.70;;
17592;SDS011;8915;51.760;14.300;2024-02-15T02:37:36;3.07;;;2.30;;
17592;SDS011;8915;51.760;14.300;2024-02-15T02:40:04;3.77;;;2.20;;
17592;SDS011;8915;51.760;14.300;2024-02-15T02:42:33;4.43;;;2.70;;
17592;SDS011;8915;51.760;14.300;2024-02-15T02:45:03;4.27;;;2.80;;
17592;SDS011;8915;51.760;14.300;2024-02-15T02:47:33;4.23;;;2.40;;
17592;SDS011;8915;51.760;14.300;2024-02-15T02:49:59;2.47;;;2.27;;
17592;SDS011;8915;51.760;14.300;2024-02-15T02:52:25;2.90;;;2.70;;
17592;SDS011;8915;51.760;14.300;2024-02-15T02:54:52;2.63;;;2.43;;
17592;SDS011;8915;51.760;14.300;2024-02-15T02:57:18;3.30;;;3.00;;
17592;SDS011;8915;51.760;14.300;2024-02-15T02:59:46;2.63;;;2.40;;
17592;SDS011;8915;51.760;14.300;2024-02-15T03:02:13;2.43;;;2.23;;
17592;SDS011;8915;51.760;14.300;2024-02-15T03:04:39;3.60;;;2.27;;
17592;SDS011;8915;51.760;14.300;2024-02-15T03:07:06;4.63;;;2.80;;
17592;SDS011;8915;51.760;14.300;2024-02-15T03:09:32;2.73;;;2.53;;
17592;SDS011;8915;51.760;14.300;2024-02-15T03:11:58;8.40;;;2.83;;
17592;SDS011;8915;51.760;14.300;2024-02-15T03:14:26;3.50;;;2.87;;
17592;SDS011;8915;51.760;14.300;2024-02-15T03:16:56;2.70;;;2.50;;
17592;SDS011;8915;51.760;14.300;2024-02-15T03:19:23;2.60;;;2.40;;
17592;SDS011;8915;51.760;14.300;2024-02-15T03:21:50;4.40;;;3.00;;
17592;SDS011;8915;51.760;14.300;2024-02-15T03:24:18;4.07;;;3.17;;
17592;SDS011;8915;51.760;14.300;2024-02-15T03:26:44;7.03;;;2.97;;
17592;SDS011;8915;51.760;14.300;2024-02-15T03:29:10;3.07;;;2.77;;
17592;SDS011;8915;51.760;14.300;2024-02-15T03:31:37;2.80;;;2.60;;
17592;SDS011;8915;51.760;14.300;2024-02-15T03:34:05;5.83;;;2.70;;
17592;SDS011;8915;51.760;14.300;2024-02-15T03:36:31;3.10;;;2.90;;
17592;SDS011;8915;51.760;14.300;2024-02-15T03:38:58;3.47;;;2.77;;
17592;SDS011;8915;51.760;14.300;2024-02-15T03:41:26;9.17;;;3.10;;
17592;SDS011;8915;51.760;14.300;2024-02-15T03:43:56;3.20;;;2.90;;
17592;SDS011;8915;51.760;14.300;2024-02-15T03:46:23;2.73;;;2.43;;
17592;SDS011;8915;51.760;14.300;2024-02-15T03:48:49;7.03;;;3.80;;
17592;SDS011;8915;51.760;14.300;2024-02-15T03:51:17;4.23;;;3.00;;
17592;SDS011;8915;51.760;14.300;2024-02-15T03:53:45;4.47;;;2.90;;
17592;SDS011;8915;51.760;14.300;2024-02-15T03:56:13;3.57;;;2.87;;
17592;SDS011;8915;51.760;14.300;2024-02-15T03:58:40;3.37;;;3.00;;
17592;SDS011;8915;51.760;14.300;2024-02-15T04:01:06;3.97;;;3.17;;
17592;SDS011;8915;51.760;14.300;2024-02-15T04:03:35;3.87;;;3.40;;
17592;SDS011;8915;51.760;14.300;2024-02-15T04:06:01;3.97;;;3.17;;
17592;SDS011;8915;51.760;14.300;2024-02-15T04:08:29;3.90;;;3.50;;
17592;SDS011;8915;51.760;14.300;2024-02-15T04:10:56;3.67;;;3.30;;
17592;SDS011;8915;51.760;14.300;2024-02-15T04:13:22;5.07;;;3.13;;
17592;SDS011;8915;51.760;14.300;2024-02-15T04:15:49;3.57;;;3.23;;
17592;SDS011;8915;51.760;14.300;2024-02-15T04:18:17;4.53;;;3.10;;
17592;SDS011;8915;51.760;14.300;2024-02-15T04:20:44;3.87;;;3.07;;
17592;SDS011;8915;51.760;14.300;2024-02-15T04:23:11;4.77;;;3.63;;
17592;SDS011;8915;51.760;14.300;2024-02-15T04:25:39;3.53;;;2.97;;
17592;SDS011;8915;51.760;14.300;2024-02-15T04:28:05;4.53;;;4.00;;
17592;SDS011;8915;51.760;14.300;2024-02-15T04:30:33;4.57;;;4.10;;
17592;SDS011;8915;51.760;14.300;2024-02-15T04:33:05;4.30;;;3.60;;
17592;SDS011;8915;51.760;14.300;2024-02-15T04:35:33;5.33;;;4.30;;
17592;SDS011;8915;51.760;14.300;2024-02-15T04:38:00;5.67;;;3.67;;
17592;SDS011;8915;51.760;14.300;2024-02-15T04:40:28;4.60;;;3.50;;
17592;SDS011;8915;51.760;14.300;2024-02-15T04:42:56;4.30;;;3.67;;
17592;SDS011;8915;51.760;14.300;2024-02-15T04:45:23;4.73;;;3.87;;
17592;SDS011;8915;51.760;14.300;2024-02-15T04:47:51;4.53;;;3.50;;
17592;SDS011;8915;51.760;14.300;2024-02-15T04:50:18;4.67;;;3.50;;
17592;SDS011;8915;51.760;14.300;2024-02-15T04:52:46;4.03;;;3.63;;
17592;SDS011;8915;51.760;14.300;2024-02-15T04:55:14;4.10;;;3.53;;
17592;SDS011;8915;51.760;14.300;2024-02-15T04:57:42;4.70;;;3.53;;
17592;SDS011;8915;51.760;14.300;2024-02-15T05:00:11;4.70;;;3.83;;
17592;SDS011;8915;51.760;14.300;2024-02-15T05:02:40;5.83;;;3.47;;
17592;SDS011;8915;51.760;14.300;2024-02-15T05:05:09;3.80;;;3.40;;
17592;SDS011;8915;51.760;14.300;2024-02-15T05:07:37;4.33;;;3.83;;
17592;SDS011;8915;51.760;14.300;2024-02-15T05:10:05;6.23;;;4.10;;
17592;SDS011;8915;51.760;14.300;2024-02-15T05:12:33;6.43;;;4.07;;
17592;SDS011;8915;51.760;14.300;2024-02-15T05:15:00;4.80;;;4.30;;
17592;SDS011;8915;51.760;14.300;2024-02-15T05:17:28;4.33;;;3.93;;
17592;SDS011;8915;51.760;14.300;2024-02-15T05:19:54;4.20;;;3.77;;
17592;SDS011;8915;51.760;14.300;2024-02-15T05:22:24;4.73;;;4.17;;
17592;SDS011;8915;51.760;14.300;2024-02-15T05:24:53;5.00;;;4.50;;
17592;SDS011;8915;51.760;14.300;2024-02-15T05:27:20;6.97;;;3.90;;
17592;SDS011;8915;51.760;14.300;2024-02-15T05:29:48;5.27;;;4.77;;
17592;SDS011;8915;51.760;14.300;2024-02-15T05:32:18;7.50;;;4.57;;
17592;SDS011;8915;51.760;14.300;2024-02-15T05:34:46;4.90;;;4.37;;
17592;SDS011;8915;51.760;14.300;2024-02-15T05:37:15;5.43;;;4.60;;
17592;SDS011;8915;51.760;14.300;2024-02-15T05:39:41;6.17;;;5.47;;
17592;SDS011;8915;51.760;14.300;2024-02-15T05:42:08;4.90;;;4.37;;
17592;SDS011;8915;51.760;14.300;2024-02-15T05:44:35;4.30;;;3.90;;
17592;SDS011;8915;51.760;14.300;2024-02-15T05:47:01;6.80;;;4.57;;
17592;SDS011;8915;51.760;14.300;2024-02-15T05:49:28;6.60;;;4.73;;
17592;SDS011;8915;51.760;14.300;2024-02-15T05:51:56;8.70;;;6.43;;
17592;SDS011;8915;51.760;14.300;2024-02-15T05:54:22;6.83;;;5.13;;
17592;SDS011;8915;51.760;14.300;2024-02-15T05:56:48;8.40;;;5.60;;
17592;SDS011;8915;51.760;14.300;2024-02-15T05:59:17;5.33;;;4.80;;
17592;SDS011;8915;51.760;14.300;2024-02-15T06:01:45;5.90;;;4.73;;
17592;SDS011;8915;51.760;14.300;2024-02-15T06:04:13;5.03;;;4.50;;
17592;SDS011;8915;51.760;14.300;2024-02-15T06:06:40;6.00;;;4.90;;
17592;SDS011;8915;51.760;14.300;2024-02-15T06:09:07;5.47;;;4.50;;
17592;SDS011;8915;51.760;14.300;2024-02-15T06:11:34;4.97;;;4.47;;
17592;SDS011;8915;51.760;14.300;2024-02-15T06:14:02;5.37;;;4.47;;
17592;SDS011;8915;51.760;14.300;2024-02-15T06:16:28;5.97;;;4.90;;
17592;SDS011;8915;51.760;14.300;2024-02-15T06:18:54;5.80;;;5.20;;
17592;SDS011;8915;51.760;14.300;2024-02-15T06:21:21;5.33;;;4.73;;
17592;SDS011;8915;51.760;14.300;2024-02-15T06:23:48;6.40;;;5.13;;
17592;SDS011;8915;51.760;14.300;2024-02-15T06:26:16;6.70;;;5.67;;
17592;SDS011;8915;51.760;14.300;2024-02-15T06:28:43;10.37;;;7.03;;
17592;SDS011;8915;51.760;14.300;2024-02-15T06:31:26;14.50;;;8.87;;
17592;SDS011;8915;51.760;14.300;2024-02-15T06:34:11;12.30;;;7.30;;
17592;SDS011;8915;51.760;14.300;2024-02-15T06:36:55;10.20;;;7.63;;
17592;SDS011;8915;51.760;14.300;2024-02-15T06:39:40;10.03;;;7.00;;
17592;SDS011;8915;51.760;14.300;2024-02-15T06:42:08;9.27;;;6.57;;
17592;SDS011;8915;51.760;14.300;2024-02-15T06:44:36;7.43;;;6.30;;
17592;SDS011;8915;51.760;14.300;2024-02-15T06:47:05;7.27;;;6.00;;
17592;SDS011;8915;51.760;14.300;2024-02-15T06:49:31;8.23;;;6.40;;
17592;SDS011;8915;51.760;14.300;2024-02-15T06:52:01;9.00;;;7.20;;
17592;SDS011;8915;51.760;14.300;2024-02-15T06:54:27;8.03;;;6.87;;
17592;SDS011;8915;51.760;14.300;2024-02-15T06:56:57;10.53;;;7.97;;
17592;SDS011;8915;51.760;14.300;2024-02-15T06:59:28;8.90;;;7.47;;
17592;SDS011;8915;51.760;14.300;2024-02-15T07:01:54;9.20;;;7.30;;
17592;SDS011;8915;51.760;14.300;2024-02-15T07:04:20;11.13;;;7.67;;
17592;SDS011;8915;51.760;14.300;2024-02-15T07:06:48;8.67;;;7.73;;
17592;SDS011;8915;51.760;14.300;2024-02-15T07:09:14;10.87;;;7.17;;
17592;SDS011;8915;51.760;14.300;2024-02-15T07:11:43;10.57;;;8.00;;
17592;SDS011;8915;51.760;14.300;2024-02-15T07:14:09;12.87;;;9.90;;
17592;SDS011;8915;51.760;14.300;2024-02-15T07:16:37;12.03;;;9.33;;
17592;SDS011;8915;51.760;14.300;2024-02-15T07:19:03;12.43;;;9.43;;
17592;SDS011;8915;51.760;14.300;2024-02-15T07:21:30;15.20;;;9.47;;
17592;SDS011;8915;51.760;14.300;2024-02-15T07:23:57;17.10;;;10.60;;
17592;SDS011;8915;51.760;14.300;2024-02-15T07:26:24;17.33;;;10.13;;
17592;SDS011;8915;51.760;14.300;2024-02-15T07:28:51;11.57;;;8.70;;
17592;SDS011;8915;51.760;14.300;2024-02-15T07:31:18;12.07;;;8.83;;
17592;SDS011;8915;51.760;14.300;2024-02-15T07:33:47;11.57;;;8.37;;
17592;SDS011;8915;51.760;14.300;2024-02-15T07:36:17;15.50;;;11.60;;
17592;SDS011;8915;51.760;14.300;2024-02-15T07:38:44;11.57;;;8.90;;
17592;SDS011;8915;51.760;14.300;2024-02-15T07:41:10;17.50;;;11.90;;
17592;SDS011;8915;51.760;14.300;2024-02-15T07:43:37;16.67;;;11.83;;
17592;SDS011;8915;51.760;14.300;2024-02-15T07:46:04;15.80;;;11.27;;
17592;SDS011;8915;51.760;14.300;2024-02-15T07:48:31;13.97;;;8.60;;
17592;SDS011;8915;51.760;14.300;2024-02-15T07:50:58;12.60;;;8.87;;
17592;SDS011;8915;51.760;14.300;2024-02-15T07:53:25;10.50;;;8.13;;
17592;SDS011;8915;51.760;14.300;2024-02-15T07:55:51;13.27;;;9.00;;
17592;SDS011;8915;51.760;14.300;2024-02-15T07:58:17;12.83;;;8.70;;
17592;SDS011;8915;51.760;14.300;2024-02-15T08:00:44;13.93;;;8.63;;
17592;SDS011;8915;51.760;14.300;2024-02-15T08:03:11;13.80;;;9.20;;
17592;SDS011;8915;51.760;14.300;2024-02-15T08:05:39;15.10;;;8.80;;
17592;SDS011;8915;51.760;14.300;2024-02-15T08:08:07;10.90;;;8.57;;
17592;SDS011;8915;51.760;14.300;2024-02-15T08:10:34;12.40;;;8.43;;
17592;SDS011;8915;51.760;14.300;2024-02-15T08:13:00;11.60;;;8.40;;
17592;SDS011;8915;51.760;14.300;2024-02-15T08:15:26;12.13;;;8.40;;
17592;SDS011;8915;51.760;14.300;2024-02-15T08:17:53;11.47;;;8.30;;
17592;SDS011;8915;51.760;14.300;2024-02-15T08:20:20;10.63;;;8.67;;
17592;SDS011;8915;51.760;14.300;2024-02-15T08:22:47;11.00;;;7.47;;
17592;SDS011;8915;51.760;14.300;2024-02-15T08:25:15;12.00;;;8.40;;
17592;SDS011;8915;51.760;14.300;2024-02-15T08:27:43;28.63;;;17.23;;
17592;SDS011;8915;51.760;14.300;2024-02-15T08:30:15;19.73;;;13.13;;
17592;SDS011;8915;51.760;14.300;2024-02-15T08:32:43;10.93;;;8.83;;
17592;SDS011;8915;51.760;14.300;2024-02-15T08:35:10;8.53;;;6.70;;
17592;SDS011;8915;51.760;14.300;2024-02-15T08:37:40;9.07;;;6.80;;
17592;SDS011;8915;51.760;14.300;2024-02-15T08:40:09;8.03;;;6.37;;
17592;SDS011;8915;51.760;14.300;2024-02-15T08:42:38;7.47;;;6.23;;
17592;SDS011;8915;51.760;14.300;2024-02-15T08:45:06;8.60;;;6.67;;
17592;SDS011;8915;51.760;14.300;2024-02-15T08:47:34;6.37;;;5.50;;
17592;SDS011;8915;51.760;14.300;2024-02-15T08:50:02;5.97;;;4.60;;
17592;SDS011;8915;51.760;14.300;2024-02-15T08:52:29;4.63;;;4.13;;
17592;SDS011;8915;51.760;14.300;2024-02-15T08:54:55;7.57;;;4.40;;
17592;SDS011;8915;51.760;14.300;2024-02-15T08:57:25;4.80;;;3.83;;
17592;SDS011;8915;51.760;14.300;2024-02-15T08:59:52;4.00;;;3.60;;
17592;SDS011;8915;51.760;14.300;2024-02-15T09:02:20;5.53;;;4.07;;
17592;SDS011;8915;51.760;14.300;2024-02-15T09:04:46;3.90;;;3.20;;
17592;SDS011;8915;51.760;14.300;2024-02-15T09:07:12;3.17;;;2.67;;
17592;SDS011;8915;51.760;14.300;2024-02-15T09:09:39;3.10;;;2.80;;
17592;SDS011;8915;51.760;14.300;2024-02-15T09:12:05;2.67;;;2.47;;
17592;SDS011;8915;51.760;14.300;2024-02-15T09:14:33;2.60;;;2.23;;
17592;SDS011;8915;51.760;14.300;2024-02-15T09:17:00;3.40;;;3.10;;
17592;SDS011;8915;51.760;14.300;2024-02-15T09:19:32;2.27;;;2.07;;
17592;SDS011;8915;51.760;14.300;2024-02-15T09:21:58;2.43;;;2.20;;
17592;SDS011;8915;51.760;14.300;2024-02-15T09:24:24;2.90;;;1.70;;
17592;SDS011;8915;51.760;14.300;2024-02-15T09:26:51;1.90;;;1.77;;
17592;SDS011;8915;51.760;14.300;2024-02-15T09:29:17;1.87;;;1.57;;
17592;SDS011;8915;51.760;14.300;2024-02-15T09:31:45;1.40;;;1.30;;
17592;SDS011;8915;51.760;14.300;2024-02-15T09:34:13;2.07;;;1.70;;
17592;SDS011;8915;51.760;14.300;2024-02-15T09:36:39;1.90;;;1.70;;
17592;SDS011;8915;51.760;14.300;2024-02-15T09:39:06;2.57;;;1.93;;
17592;SDS011;8915;51.760;14.300;2024-02-15T09:41:32;2.20;;;1.90;;
17592;SDS011;8915;51.760;14.300;2024-02-15T09:43:59;2.10;;;1.90;;
17592;SDS011;8915;51.760;14.300;2024-02-15T09:46:28;1.60;;;1.50;;
17592;SDS011;8915;51.760;14.300;2024-02-15T09:48:56;1.63;;;1.53;;
17592;SDS011;8915;51.760;14.300;2024-02-15T09:51:26;2.93;;;2.50;;
17592;SDS011;8915;51.760;14.300;2024-02-15T09:53:56;2.53;;;2.00;;
17592;SDS011;8915;51.760;14.300;2024-02-15T09:56:23;4.37;;;2.20;;
17592;SDS011;8915;51.760;14.300;2024-02-15T09:58:53;2.97;;;2.10;;
17592;SDS011;8915;51.760;14.300;2024-02-15T10:01:21;1.50;;;1.40;;
17592;SDS011;8915;51.760;14.300;2024-02-15T10:03:49;1.40;;;1.30;;
17592;SDS011;8915;51.760;14.300;2024-02-15T10:06:16;2.03;;;1.63;;
17592;SDS011;8915;51.760;14.300;2024-02-15T10:08:44;3.37;;;2.80;;
17592;SDS011;8915;51.760;14.300;2024-02-15T10:11:12;3.10;;;1.60;;
17592;SDS011;8915;51.760;14.300;2024-02-15T10:13:39;3.00;;;2.70;;
17592;SDS011;8915;51.760;14.300;2024-02-15T10:16:15;1.53;;;1.30;;
17592;SDS011;8915;51.760;14.300;2024-02-15T10:18:43;1.60;;;1.47;;
17592;SDS011;8915;51.760;14.300;2024-02-15T10:21:09;1.60;;;1.30;;
17592;SDS011;8915;51.760;14.300;2024-02-15T10:23:36;1.77;;;1.20;;
17592;SDS011;8915;51.760;14.300;2024-02-15T10:29:03;1.40;;;1.30;;
17592;SDS011;8915;51.760;14.300;2024-02-15T10:31:32;2.37;;;1.20;;
17592;SDS011;8915;51.760;14.300;2024-02-15T10:34:01;2.90;;;1.30;;
17592;SDS011;8915;51.760;14.300;2024-02-15T10:36:29;1.13;;;0.90;;
17592;SDS011;8915;51.760;14.300;2024-02-15T10:39:09;1.27;;;0.90;;
17592;SDS011;8915;51.760;14.300;2024-02-15T10:41:38;1.07;;;0.90;;
17592;SDS011;8915;51.760;14.300;2024-02-15T10:44:06;0.73;;;0.73;;
17592;SDS011;8915;51.760;14.300;2024-02-15T10:46:34;1.47;;;1.00;;
17592;SDS011;8915;51.760;14.300;2024-02-15T10:49:01;1.00;;;0.90;;
17592;SDS011;8915;51.760;14.300;2024-02-15T10:51:27;0.97;;;0.90;;
17592;SDS011;8915;51.760;14.300;2024-02-15T10:53:57;0.80;;;0.80;;
17592;SDS011;8915;51.760;14.300;2024-02-15T10:56:36;0.90;;;0.90;;
17592;SDS011;8915;51.760;14.300;2024-02-15T10:59:08;1.57;;;1.30;;
17592;SDS011;8915;51.760;14.300;2024-02-15T11:01:38;1.60;;;0.97;;
17592;SDS011;8915;51.760;14.300;2024-02-15T11:04:07;1.10;;;1.00;;
17592;SDS011;8915;51.760;14.300;2024-02-15T11:06:34;1.53;;;1.20;;
17592;SDS011;8915;51.760;14.300;2024-02-15T11:09:04;2.47;;;0.97;;
17592;SDS011;8915;51.760;14.300;2024-02-15T11:11:36;1.73;;;1.40;;
17592;SDS011;8915;51.760;14.300;2024-02-15T11:16:54;2.20;;;1.50;;
17592;SDS011;8915;51.760;14.300;2024-02-15T11:19:40;2.97;;;1.33;;
17592;SDS011;8915;51.760;14.300;2024-02-15T11:22:13;0.83;;;0.80;;
17592;SDS011;8915;51.760;14.300;2024-02-15T11:24:45;2.30;;;1.23;;
17592;SDS011;8915;51.760;14.300;2024-02-15T11:27:14;2.53;;;1.17;;
17592;SDS011;8915;51.760;14.300;2024-02-15T11:29:52;3.73;;;2.30;;
17592;SDS011;8915;51.760;14.300;2024-02-15T11:32:39;2.33;;;1.80;;
17592;SDS011;8915;51.760;14.300;2024-02-15T11:35:09;2.57;;;1.83;;
17592;SDS011;8915;51.760;14.300;2024-02-15T11:37:53;1.80;;;1.50;;
17592;SDS011;8915;51.760;14.300;2024-02-15T11:40:29;1.73;;;1.40;;
17592;SDS011;8915;51.760;14.300;2024-02-15T11:43:46;1.17;;;0.93;;
17592;SDS011;8915;51.760;14.300;2024-02-15T11:46:25;2.70;;;1.63;;
17592;SDS011;8915;51.760;14.300;2024-02-15T11:48:57;1.67;;;1.20;;
17592;SDS011;8915;51.760;14.300;2024-02-15T11:51:25;1.43;;;1.33;;
17592;SDS011;8915;51.760;14.300;2024-02-15T11:53:57;1.30;;;1.10;;
17592;SDS011;8915;51.760;14.300;2024-02-15T11:56:25;2.20;;;1.20;;
17592;SDS011;8915;51.760;14.300;2024-02-15T11:59:01;3.63;;;0.90;;
17592;SDS011;8915;51.760;14.300;2024-02-15T12:01:32;1.67;;;1.30;;
17592;SDS011;8915;51.760;14.300;2024-02-15T12:04:18;1.60;;;1.00;;
17592;SDS011;8915;51.760;14.300;2024-02-15T12:07:02;1.00;;;0.90;;
17592;SDS011;8915;51.760;14.300;2024-02-15T12:09:47;1.00;;;0.90;;
17592;SDS011;8915;51.760;14.300;2024-02-15T12:12:31;2.83;;;1.20;;
17592;SDS011;8915;51.760;14.300;2024-02-15T12:15:14;1.03;;;0.90;;
17592;SDS011;8915;51.760;14.300;2024-02-15T12:21:01;0.70;;;0.70;;
17592;SDS011;8915;51.760;14.300;2024-02-15T12:23:29;1.00;;;0.80;;
17592;SDS011;8915;51.760;14.300;2024-02-15T12:25:58;1.43;;;0.83;;
17592;SDS011;8915;51.760;14.300;2024-02-15T12:28:28;0.80;;;0.80;;
17592;SDS011;8915;51.760;14.300;2024-02-15T12:30:54;0.80;;;0.80;;
17592;SDS011;8915;51.760;14.300;2024-02-15T12:33:23;4.07;;;1.10;;
17592;SDS011;8915;51.760;14.300;2024-02-15T12:35:52;1.20;;;1.10;;
17592;SDS011;8915;51.760;14.300;2024-02-15T12:38:30;1.53;;;1.10;;
17592;SDS011;8915;51.760;14.300;2024-02-15T12:40:56;0.93;;;0.90;;
17592;SDS011;8915;51.760;14.300;2024-02-15T12:43:22;2.03;;;0.83;;
17592;SDS011;8915;51.760;14.300;2024-02-15T12:45:49;0.93;;;0.93;;
17592;SDS011;8915;51.760;14.300;2024-02-15T12:48:15;3.20;;;0.93;;
17592;SDS011;8915;51.760;14.300;2024-02-15T12:50:45;1.40;;;1.10;;
17592;SDS011;8915;51.760;14.300;2024-02-15T12:53:12;1.83;;;0.90;;
17592;SDS011;8915;51.760;14.300;2024-02-15T12:55:39;1.13;;;1.03;;
17592;SDS011;8915;51.760;14.300;2024-02-15T12:58:06;1.00;;;0.90;;
17592;SDS011;8915;51.760;14.300;2024-02-15T13:00:38;2.90;;;1.70;;
17592;SDS011;8915;51.760;14.300;2024-02-15T13:03:06;1.27;;;0.90;;
17592;SDS011;8915;51.760;14.300;2024-02-15T13:05:35;5.77;;;3.43;;
17592;SDS011;8915;51.760;14.300;2024-02-15T13:08:03;2.20;;;1.87;;
17592;SDS011;8915;51.760;14.300;2024-02-15T13:10:34;2.70;;;1.93;;
17592;SDS011;8915;51.760;14.300;2024-02-15T13:13:01;2.77;;;2.40;;
17592;SDS011;8915;51.760;14.300;2024-02-15T13:15:28;2.57;;;2.13;;
17592;SDS011;8915;51.760;14.300;2024-02-15T13:17:57;3.80;;;3.20;;
17592;SDS011;8915;51.760;14.300;2024-02-15T13:20:24;2.47;;;2.17;;
17592;SDS011;8915;51.760;14.300;2024-02-15T13:22:57;4.30;;;2.80;;
17592;SDS011;8915;51.760;14.300;2024-02-15T13:25:26;2.40;;;2.23;;
17592;SDS011;8915;51.760;14.300;2024-02-15T13:27:53;2.63;;;1.87;;
17592;SDS011;8915;51.760;14.300;2024-02-15T13:30:19;2.70;;;1.80;;
17592;SDS011;8915;51.760;14.300;2024-02-15T13:32:48;3.53;;;2.73;;
17592;SDS011;8915;51.760;14.300;2024-02-15T13:35:15;3.10;;;2.07;;
17592;SDS011;8915;51.760;14.300;2024-02-15T13:37:46;2.40;;;2.20;;
17592;SDS011;8915;51.760;14.300;2024-02-15T13:40:17;2.90;;;2.60;;
17592;SDS011;8915;51.760;14.300;2024-02-15T13:42:50;3.87;;;2.83;;
17592;SDS011;8915;51.760;14.300;2024-02-15T13:45:19;3.30;;;2.00;;
17592;SDS011;8915;51.760;14.300;2024-02-15T13:47:47;3.20;;;2.30;;
17592;SDS011;8915;51.760;14.300;2024-02-15T13:50:15;2.93;;;2.50;;
17592;SDS011;8915;51.760;14.300;2024-02-15T13:52:42;2.50;;;2.30;;
17592;SDS011;8915;51.760;14.300;2024-02-15T13:55:09;3.53;;;2.50;;
17592;SDS011;8915;51.760;14.300;2024-02-15T13:57:37;3.87;;;3.47;;
17592;SDS011;8915;51.760;14.300;2024-02-15T14:00:06;3.23;;;2.53;;
17592;SDS011;8915;51.760;14.300;2024-02-15T14:02:39;3.10;;;2.80;;
17592;SDS011;8915;51.760;14.300;2024-02-15T14:05:06;2.07;;;1.70;;
17592;SDS011;8915;51.760;14.300;2024-02-15T14:07:33;2.83;;;2.30;;
17592;SDS011;8915;51.760;14.300;2024-02-15T14:10:00;4.50;;;2.43;;
17592;SDS011;8915;51.760;14.300;2024-02-15T14:12:27;3.13;;;2.43;;
17592;SDS011;8915;51.760;14.300;2024-02-15T14:14:54;3.47;;;2.30;;
17592;SDS011;8915;51.760;14.300;2024-02-15T14:17:22;6.90;;;4.60;;
17592;SDS011;8915;51.760;14.300;2024-02-15T14:19:48;3.53;;;2.73;;
17592;SDS011;8915;51.760;14.300;2024-02-15T14:22:15;3.73;;;3.27;;
17592;SDS011;8915;51.760;14.300;2024-02-15T14:24:41;3.20;;;2.90;;
17592;SDS011;8915;51.760;14.300;2024-02-15T14:27:08;1.90;;;1.80;;
17592;SDS011;8915;51.760;14.300;2024-02-15T14:29:35;2.37;;;2.00;;
17592;SDS011;8915;51.760;14.300;2024-02-15T14:32:02;4.93;;;2.10;;
17592;SDS011;8915;51.760;14.300;2024-02-15T14:34:48;3.90;;;2.20;;
17592;SDS011;8915;51.760;14.300;2024-02-15T14:37:14;3.10;;;2.10;;
17592;SDS011;8915;51.760;14.300;2024-02-15T14:39:42;3.07;;;2.00;;
17592;SDS011;8915;51.760;14.300;2024-02-15T14:42:08;3.63;;;2.00;;
17592;SDS011;8915;51.760;14.300;2024-02-15T14:44:37;2.00;;;1.80;;
17592;SDS011;8915;51.760;14.300;2024-02-15T14:47:03;2.73;;;1.90;;
17592;SDS011;8915;51.760;14.300;2024-02-15T14:49:30;1.63;;;1.53;;
17592;SDS011;8915;51.760;14.300;2024-02-15T14:51:58;2.33;;;1.70;;
17592;SDS011;8915;51.760;14.300;2024-02-15T14:54:25;2.13;;;1.83;;
17592;SDS011;8915;51.760;14.300;2024-02-15T14:56:52;2.10;;;1.90;;
17592;SDS011;8915;51.760;14.300;2024-02-15T14:59:19;2.20;;;2.00;;
17592;SDS011;8915;51.760;14.300;2024-02-15T15:01:45;3.57;;;2.20;;